Time;durP1;ratioP1;P1;durP2;ratioP2;P2;SDS_P1;SDS_P2;PMS_P1;PMS_P2;Temp;Humidity;BMP_temperature;BMP_pressure;BME280_temperature;BME280_humidity;BME280_pressure;Samples;Min_cycle;Max_cycle;Signal;HPM_P1;HPM_P2
2023/06/22 00:00:15;;;;;;;;;;;;;;;30.86;38.37;94191.25;4770069;30;8739;-56
2023/06/22 00:02:44;;;;;;;;;;;;;;;30.85;38.96;94182.16;4803090;29;7036;-57
2023/06/22 00:05:12;;;;;;;;;;;;;;;30.84;38.24;94188.28;4855173;29;7154;-56
2023/06/22 00:07:57;;;;;;;;;;;;;;;30.83;38.80;94189.53;4854865;29;7053;-56
2023/06/22 00:10:24;;;;;;;;;;;;;;;30.81;38.27;94190.09;4855595;29;7447;-57
2023/06/22 00:12:58;;;;;;;;;;;;;;;30.81;38.58;94189.34;4839173;29;8127;-56
2023/06/22 00:15:40;;;;;;;;;;;;;;;30.81;38.32;94186.59;4874815;29;7045;-56
2023/06/22 00:18:36;;;;;;;;;;;;;;;30.79;38.64;94192.69;4891806;29;9310;-56
2023/06/22 00:21:20;;;;;;;;;;;;;;;30.78;38.49;94196.00;4907061;28;7039;-56
2023/06/22 00:24:03;;;;;;;;;;;;;;;30.76;38.82;94190.25;4948413;28;7366;-56
2023/06/22 00:26:48;;;;;;;;;;;;;;;30.76;37.96;94190.25;4982609;28;9017;-56
2023/06/22 00:30:03;;;;;;;;;;;;;;;30.76;38.85;94184.69;4982858;28;8994;-57
2023/06/22 00:32:34;;;;;;;;;;;;;;;30.77;37.77;94188.97;4905795;29;9469;-57
2023/06/22 00:35:08;;;;;;;;;;;;;;;30.78;37.98;94187.66;4917235;29;7290;-57
2023/06/22 00:38:08;;;;;;;;;;;;;;;30.75;37.79;94188.78;5004397;28;7701;-57
2023/06/22 00:40:50;;;;;;;;;;;;;;;30.72;38.68;94187.09;4956316;28;7438;-57
2023/06/22 00:43:27;;;;;;;;;;;;;;;30.74;38.05;94188.03;4965084;28;9061;-56
2023/06/22 00:46:12;;;;;;;;;;;;;;;30.75;37.70;94189.53;4962517;28;7205;-57
2023/06/22 00:48:47;;;;;;;;;;;;;;;30.74;38.12;94181.75;4965258;28;7253;-56
2023/06/22 00:51:15;;;;;;;;;;;;;;;30.74;38.55;94184.50;4967191;28;7134;-56
2023/06/22 00:53:54;;;;;;;;;;;;;;;30.71;37.90;94180.78;4955191;28;7483;-56
2023/06/22 00:56:57;;;;;;;;;;;;;;;30.70;37.62;94187.66;4952657;28;8094;-56
2023/06/22 00:59:28;;;;;;;;;;;;;;;30.70;37.81;94184.13;4966629;28;8453;-56
2023/06/22 01:02:05;;;;;;;;;;;;;;;30.71;37.80;94180.09;4955556;28;7503;-56
2023/06/22 01:04:55;;;;;;;;;;;;;;;30.67;38.19;94190.81;4967548;28;7255;-56
2023/06/22 01:08:06;;;;;;;;;;;;;;;30.68;38.66;94192.28;4954789;28;9013;-56
2023/06/22 01:10:55;;;;;;;;;;;;;;;30.67;37.69;94194.31;4983917;28;7470;-56
2023/06/22 01:13:49;;;;;;;;;;;;;;;30.67;38.74;94199.13;4994471;28;7082;-56
2023/06/22 01:16:25;;;;;;;;;;;;;;;30.66;38.37;94203.19;4980618;28;8713;-56
2023/06/22 01:18:57;;;;;;;;;;;;;;;30.66;38.35;94203.19;4967726;28;8873;-56
2023/06/22 01:21:27;;;;;;;;;;;;;;;30.65;38.20;94212.78;4985315;28;7203;-56
2023/06/22 01:24:10;;;;;;;;;;;;;;;30.64;38.21;94217.63;4967807;28;7295;-56
2023/06/22 01:27:11;;;;;;;;;;;;;;;30.67;38.63;94218.56;4984455;28;9002;-56
2023/06/22 01:29:42;;;;;;;;;;;;;;;30.61;38.71;94199.28;4984262;28;9703;-56
2023/06/22 01:32:11;;;;;;;;;;;;;;;30.60;38.63;94211.69;4981904;28;7143;-57
2023/06/22 01:34:40;;;;;;;;;;;;;;;30.58;38.26;94219.78;4984252;28;7205;-56
2023/06/22 01:37:07;;;;;;;;;;;;;;;30.58;38.11;94222.56;4984932;28;8762;-56
2023/06/22 01:39:37;;;;;;;;;;;;;;;30.58;38.68;94230.19;4978831;28;7136;-57
2023/06/22 01:42:05;;;;;;;;;;;;;;;30.51;38.08;94221.25;4984213;28;8994;-56
2023/06/22 01:44:32;;;;;;;;;;;;;;;30.58;38.58;94227.41;4983995;28;7739;-56
2023/06/22 01:47:02;;;;;;;;;;;;;;;30.59;38.70;94215.00;4995672;28;7215;-56
2023/06/22 01:49:30;;;;;;;;;;;;;;;30.59;38.45;94221.28;5018839;28;8026;-56
2023/06/22 01:51:59;;;;;;;;;;;;;;;30.58;37.93;94227.41;5056189;28;8940;-56
2023/06/22 01:54:25;;;;;;;;;;;;;;;30.58;38.45;94224.63;5028046;28;9068;-56
2023/06/22 01:57:01;;;;;;;;;;;;;;;30.52;38.01;94217.19;5027868;28;7541;-56
2023/06/22 01:59:37;;;;;;;;;;;;;;;30.54;38.48;94222.94;5024554;28;8270;-56
2023/06/22 02:02:11;;;;;;;;;;;;;;;30.53;38.33;94226.28;5030652;28;7079;-57
2023/06/22 02:05:12;;;;;;;;;;;;;;;30.54;38.49;94225.72;5030737;28;7201;-57
2023/06/22 02:08:19;;;;;;;;;;;;;;;30.52;38.09;94227.53;4966218;28;7211;-56
2023/06/22 02:10:59;;;;;;;;;;;;;;;30.52;38.90;94216.44;4964054;28;9120;-56
2023/06/22 02:13:59;;;;;;;;;;;;;;;30.50;39.18;94217.00;4979198;28;7021;-56
2023/06/22 02:16:29;;;;;;;;;;;;;;;30.49;38.46;94212.72;4926179;29;7227;-56
2023/06/22 02:19:06;;;;;;;;;;;;;;;30.46;39.36;94215.88;4908677;29;7992;-56
2023/06/22 02:22:02;;;;;;;;;;;;;;;30.46;38.62;94222.16;4913490;29;7133;-56
2023/06/22 02:24:34;;;;;;;;;;;;;;;30.48;38.75;94216.06;4844811;29;8728;-56
2023/06/22 02:27:06;;;;;;;;;;;;;;;30.47;38.28;94220.88;4845412;29;7233;-57
2023/06/22 02:29:47;;;;;;;;;;;;;;;30.48;38.73;94221.63;4847304;29;7789;-57
2023/06/22 02:32:13;;;;;;;;;;;;;;;30.47;37.94;94203.50;4839264;29;7281;-57
2023/06/22 02:34:40;;;;;;;;;;;;;;;30.47;38.30;94203.50;4846101;29;7006;-56
2023/06/22 02:37:12;;;;;;;;;;;;;;;30.46;38.99;94208.28;4845105;29;7089;-57
2023/06/22 02:39:38;;;;;;;;;;;;;;;30.46;38.62;94204.75;4837798;29;9059;-57
2023/06/22 02:42:06;;;;;;;;;;;;;;;30.45;38.60;94204.00;4843451;29;9335;-57
2023/06/22 02:44:33;;;;;;;;;;;;;;;30.46;39.32;94199.97;4862413;29;7049;-58
2023/06/22 02:46:59;;;;;;;;;;;;;;;30.48;38.87;94199.41;4887181;29;8648;-57
2023/06/22 02:49:45;;;;;;;;;;;;;;;30.47;38.08;94187.56;4901466;29;9023;-57
2023/06/22 02:52:20;;;;;;;;;;;;;;;30.44;39.19;94185.91;4917751;28;9231;-57
2023/06/22 02:54:49;;;;;;;;;;;;;;;30.42;39.09;94179.41;4951476;28;9016;-57
2023/06/22 02:57:27;;;;;;;;;;;;;;;30.42;38.19;94185.69;4948973;28;7124;-57
2023/06/22 02:59:55;;;;;;;;;;;;;;;30.44;38.99;94183.13;4951285;28;7320;-57
2023/06/22 03:02:26;;;;;;;;;;;;;;;30.41;38.67;94177.91;5026619;28;9421;-57
2023/06/22 03:04:53;;;;;;;;;;;;;;;30.42;39.15;94179.41;5020358;28;7106;-56
2023/06/22 03:07:20;;;;;;;;;;;;;;;30.40;38.59;94179.97;5019459;28;8950;-56
2023/06/22 03:09:46;;;;;;;;;;;;;;;30.39;38.64;94178.47;5024833;28;7454;-56
2023/06/22 03:12:15;;;;;;;;;;;;;;;30.40;38.03;94182.72;5060712;28;7175;-56
2023/06/22 03:14:56;;;;;;;;;;;;;;;30.41;38.81;94195.31;5040907;28;7231;-57
2023/06/22 03:17:26;;;;;;;;;;;;;;;30.40;39.24;94188.28;5022158;28;7056;-56
2023/06/22 03:20:12;;;;;;;;;;;;;;;30.39;38.45;94189.56;5044645;28;7964;-56
2023/06/22 03:23:11;;;;;;;;;;;;;;;30.37;39.17;94183.81;5039204;28;7212;-57
2023/06/22 03:25:57;;;;;;;;;;;;;;;30.36;38.79;94187.88;4949872;28;9352;-57
2023/06/22 03:28:33;;;;;;;;;;;;;;;30.37;39.12;94185.84;4934470;28;7264;-57
2023/06/22 03:31:04;;;;;;;;;;;;;;;30.36;39.19;94198.97;4962919;28;7351;-57
2023/06/22 03:33:41;;;;;;;;;;;;;;;30.35;38.83;94186.41;4951199;28;9163;-57
2023/06/22 03:36:23;;;;;;;;;;;;;;;30.31;39.54;94174.91;4961715;28;7520;-57
2023/06/22 03:38:58;;;;;;;;;;;;;;;30.34;39.12;94176.56;4951801;28;7043;-57
2023/06/22 03:41:25;;;;;;;;;;;;;;;30.33;38.08;94174.34;4951798;28;7251;-56
2023/06/22 03:44:01;;;;;;;;;;;;;;;30.31;39.00;94177.69;4965837;28;7409;-57
2023/06/22 03:47:13;;;;;;;;;;;;;;;30.33;38.77;94171.59;4961797;28;7183;-57
2023/06/22 03:49:49;;;;;;;;;;;;;;;30.33;39.05;94175.09;4896485;29;9048;-57
2023/06/22 03:52:33;;;;;;;;;;;;;;;30.31;38.18;94161.03;4895755;29;7635;-57
2023/06/22 03:54:59;;;;;;;;;;;;;;;30.28;38.21;94173.19;4893539;29;7283;-57
2023/06/22 03:57:31;;;;;;;;;;;;;;;30.29;38.45;94174.69;4914191;29;7350;-57
2023/06/22 03:59:58;;;;;;;;;;;;;;;30.32;38.62;94164.56;4908144;29;9071;-56
2023/06/22 04:02:24;;;;;;;;;;;;;;;30.29;39.20;94149.72;4963429;28;8969;-56
2023/06/22 04:04:51;;;;;;;;;;;;;;;30.28;38.70;94142.69;4966950;28;9021;-57
2023/06/22 04:07:17;;;;;;;;;;;;;;;30.27;38.36;94135.66;4964525;28;9153;-57
2023/06/22 04:09:43;;;;;;;;;;;;;;;30.26;38.95;94138.97;4965971;28;7076;-56
2023/06/22 04:12:12;;;;;;;;;;;;;;;30.25;38.33;94149.34;4966152;28;8966;-56
2023/06/22 04:14:40;;;;;;;;;;;;;;;30.23;38.07;94143.56;4969504;28;7216;-56
2023/06/22 04:17:28;;;;;;;;;;;;;;;30.25;38.42;94145.81;4969671;28;9198;-56
2023/06/22 04:20:26;;;;;;;;;;;;;;;30.27;38.54;94148.78;4988472;28;9114;-56
2023/06/22 04:23:09;;;;;;;;;;;;;;;30.23;39.04;94151.16;4983295;28;8702;-56
2023/06/22 04:25:46;;;;;;;;;;;;;;;30.27;39.03;94157.09;4970919;28;7034;-56
2023/06/22 04:28:35;;;;;;;;;;;;;;;30.27;38.83;94146.75;5029193;28;7018;-56
2023/06/22 04:31:20;;;;;;;;;;;;;;;30.25;38.34;94143.78;5021983;28;7186;-56
2023/06/22 04:33:56;;;;;;;;;;;;;;;30.23;38.97;94142.84;5027657;28;8909;-56
2023/06/22 04:36:36;;;;;;;;;;;;;;;30.22;38.74;94144.88;5061597;28;7151;-56
2023/06/22 04:39:10;;;;;;;;;;;;;;;30.22;38.01;94135.81;5021865;28;7291;-56
2023/06/22 04:42:03;;;;;;;;;;;;;;;30.24;38.59;94133.97;5024592;28;7237;-56
2023/06/22 04:44:37;;;;;;;;;;;;;;;30.25;38.56;94138.25;5045372;28;9389;-56
2023/06/22 04:47:22;;;;;;;;;;;;;;;30.26;38.50;94145.25;5028102;28;9235;-55
2023/06/22 04:49:58;;;;;;;;;;;;;;;30.24;39.08;94136.00;5026731;28;8914;-56
2023/06/22 04:52:24;;;;;;;;;;;;;;;30.25;37.93;94131.94;5022602;28;9384;-56
2023/06/22 04:54:55;;;;;;;;;;;;;;;30.24;38.14;94138.75;5024936;28;9205;-56
2023/06/22 04:57:32;;;;;;;;;;;;;;;30.24;40.65;94131.19;5020582;28;7127;-56
2023/06/22 05:00:13;;;;;;;;;;;;;;;30.24;39.41;94139.50;5043311;28;8134;-56
2023/06/22 05:02:40;;;;;;;;;;;;;;;30.21;40.64;94134.31;5024442;28;6995;-56
2023/06/22 05:05:17;;;;;;;;;;;;;;;30.21;40.79;94123.94;5027316;28;7207;-56
2023/06/22 05:07:50;;;;;;;;;;;;;;;30.25;40.88;94143.03;5025931;28;7839;-55
2023/06/22 05:11:02;;;;;;;;;;;;;;;30.25;40.19;94131.94;5032447;28;7265;-55
2023/06/22 05:13:28;;;;;;;;;;;;;;;30.25;40.16;94132.69;4990975;28;7210;-56
2023/06/22 05:16:06;;;;;;;;;;;;;;;30.25;40.35;94127.13;4973882;28;7172;-56
2023/06/22 05:19:23;;;;;;;;;;;;;;;30.23;40.51;94131.75;4970048;28;7238;-56
2023/06/22 05:21:58;;;;;;;;;;;;;;;30.24;39.98;94122.13;4951404;28;9195;-56
2023/06/22 05:24:34;;;;;;;;;;;;;;;30.21;40.22;94132.28;4936120;28;6941;-56
2023/06/22 05:27:04;;;;;;;;;;;;;;;30.20;40.55;94130.81;4946383;28;7377;-56
2023/06/22 05:30:13;;;;;;;;;;;;;;;30.21;40.24;94118.41;4947790;28;7244;-56
2023/06/22 05:32:40;;;;;;;;;;;;;;;30.19;40.47;94129.31;4932419;28;9117;-56
2023/06/22 05:35:30;;;;;;;;;;;;;;;30.20;40.74;94141.91;4937295;28;7264;-56
2023/06/22 05:38:15;;;;;;;;;;;;;;;30.19;40.91;94134.13;4949901;28;7251;-56
2023/06/22 05:40:50;;;;;;;;;;;;;;;30.19;40.37;94120.25;4936975;28;9634;-56
2023/06/22 05:43:33;;;;;;;;;;;;;;;30.16;40.64;94122.09;4949534;28;9076;-56
2023/06/22 05:46:09;;;;;;;;;;;;;;;30.18;40.70;94125.06;4935142;28;9290;-56
2023/06/22 05:48:51;;;;;;;;;;;;;;;30.16;40.43;94124.88;4933785;28;9170;-56
2023/06/22 05:51:52;;;;;;;;;;;;;;;30.17;40.09;94131.13;5004998;28;7770;-56
2023/06/22 05:54:38;;;;;;;;;;;;;;;30.16;41.60;94121.34;5010203;28;7131;-56
2023/06/22 05:57:16;;;;;;;;;;;;;;;30.15;41.15;94130.94;5015964;28;8921;-56
2023/06/22 05:59:44;;;;;;;;;;;;;;;30.14;41.34;94138.56;5029222;28;7189;-57
2023/06/22 06:02:16;;;;;;;;;;;;;;;30.13;40.92;94131.50;5060425;28;9220;-56
2023/06/22 06:05:04;;;;;;;;;;;;;;;30.14;40.74;94144.09;5048314;28;9118;-57
2023/06/22 06:07:38;;;;;;;;;;;;;;;30.14;40.83;94133.00;5023667;28;7013;-57
2023/06/22 06:10:16;;;;;;;;;;;;;;;30.14;41.61;94146.88;5027546;28;7064;-56
2023/06/22 06:13:35;;;;;;;;;;;;;;;30.15;40.58;94145.56;5063204;28;7215;-57
2023/06/22 06:16:01;;;;;;;;;;;;;;;30.14;41.58;94141.31;5027299;28;7257;-57
2023/06/22 06:18:53;;;;;;;;;;;;;;;30.15;40.87;94134.47;5042370;28;7247;-57
2023/06/22 06:21:55;;;;;;;;;;;;;;;30.14;41.04;94149.66;5031078;28;7043;-57
2023/06/22 06:24:21;;;;;;;;;;;;;;;30.11;41.50;94153.50;5049149;28;8707;-57
2023/06/22 06:26:53;;;;;;;;;;;;;;;30.07;41.28;94155.88;5025341;28;9129;-57
2023/06/22 06:29:20;;;;;;;;;;;;;;;30.09;41.48;94153.31;5025282;28;7364;-57
2023/06/22 06:31:56;;;;;;;;;;;;;;;30.09;40.92;94149.78;5023338;28;9345;-57
2023/06/22 06:34:23;;;;;;;;;;;;;;;30.08;41.11;94151.81;5030786;28;9073;-57
2023/06/22 06:36:49;;;;;;;;;;;;;;;30.11;41.80;94166.63;5024088;28;7320;-57
2023/06/22 06:39:27;;;;;;;;;;;;;;;30.11;41.20;94166.63;5027519;28;8715;-56
2023/06/22 06:42:05;;;;;;;;;;;;;;;30.10;40.85;94165.16;5023037;28;7216;-56
2023/06/22 06:44:32;;;;;;;;;;;;;;;30.07;41.49;94155.13;5023448;28;9262;-56
2023/06/22 06:47:17;;;;;;;;;;;;;;;30.09;41.64;94169.94;5045610;28;7050;-56
2023/06/22 06:49:50;;;;;;;;;;;;;;;30.07;41.44;94166.22;5021699;28;7054;-57
2023/06/22 06:52:23;;;;;;;;;;;;;;;30.06;41.36;94171.03;5040191;28;7349;-56
2023/06/22 06:54:55;;;;;;;;;;;;;;;30.00;41.28;94167.69;5030032;28;7487;-57
2023/06/22 06:57:23;;;;;;;;;;;;;;;29.99;42.27;94182.09;5027516;28;7650;-56
2023/06/22 06:59:53;;;;;;;;;;;;;;;29.99;42.54;94177.28;5027143;28;7209;-57
2023/06/22 07:02:20;;;;;;;;;;;;;;;29.96;42.76;94183.91;5021657;28;6865;-57
2023/06/22 07:04:51;;;;;;;;;;;;;;;29.97;42.38;94190.94;5021193;28;6993;-57
2023/06/22 07:07:34;;;;;;;;;;;;;;;29.93;42.52;94182.22;5030365;28;8673;-57
2023/06/22 07:10:12;;;;;;;;;;;;;;;29.92;42.29;94210.50;5032482;28;7250;-57
2023/06/22 07:12:40;;;;;;;;;;;;;;;29.92;42.18;94211.25;5029677;28;7345;-57
2023/06/22 07:15:28;;;;;;;;;;;;;;;29.90;43.17;94229.72;5045709;28;8242;-57
2023/06/22 07:18:04;;;;;;;;;;;;;;;29.86;42.29;94232.09;5026171;28;9252;-57
2023/06/22 07:20:34;;;;;;;;;;;;;;;29.82;42.89;94271.25;5037277;28;7272;-57
2023/06/22 07:23:37;;;;;;;;;;;;;;;29.61;43.54;94339.78;5046006;28;8308;-57
2023/06/22 07:26:08;;;;;;;;;;;;;;;29.64;42.68;94317.28;4984721;28;8743;-57
2023/06/22 07:28:37;;;;;;;;;;;;;;;29.69;42.58;94310.09;4968895;28;8982;-56
2023/06/22 07:31:14;;;;;;;;;;;;;;;29.72;42.69;94306.25;4984877;28;9241;-57
2023/06/22 07:33:53;;;;;;;;;;;;;;;29.75;42.52;94330.16;4967593;28;9458;-57
2023/06/22 07:36:23;;;;;;;;;;;;;;;29.80;43.25;94337.59;4973900;28;7300;-57
2023/06/22 07:38:53;;;;;;;;;;;;;;;29.83;42.96;94327.44;4999562;28;7172;-57
2023/06/22 07:41:22;;;;;;;;;;;;;;;29.85;42.01;94322.84;4974772;28;7238;-57
2023/06/22 07:44:06;;;;;;;;;;;;;;;29.87;42.62;94328.59;4981061;28;7285;-57
2023/06/22 07:46:32;;;;;;;;;;;;;;;29.90;42.88;94344.16;4999955;28;9110;-57
2023/06/22 07:49:02;;;;;;;;;;;;;;;29.91;42.87;94325.47;4969596;28;7034;-57
2023/06/22 07:51:28;;;;;;;;;;;;;;;29.93;42.51;94331.97;4983162;28;7524;-57
2023/06/22 07:54:07;;;;;;;;;;;;;;;29.94;42.00;94316.84;4970093;28;9067;-57
2023/06/22 07:56:35;;;;;;;;;;;;;;;29.96;41.94;94319.81;4986683;28;7373;-57
2023/06/22 07:59:04;;;;;;;;;;;;;;;29.97;41.87;94329.59;4966138;28;6988;-57
2023/06/22 08:01:43;;;;;;;;;;;;;;;29.97;42.24;94328.88;4993636;28;7883;-57
2023/06/22 08:04:15;;;;;;;;;;;;;;;30.00;41.79;94353.50;5058725;28;7440;-57
2023/06/22 08:06:45;;;;;;;;;;;;;;;30.04;42.34;94355.94;5046317;28;7297;-57
2023/06/22 08:09:18;;;;;;;;;;;;;;;30.07;41.75;94341.72;5027826;28;9409;-57
2023/06/22 08:12:19;;;;;;;;;;;;;;;30.08;41.64;94340.44;5029752;28;8773;-56
2023/06/22 08:14:59;;;;;;;;;;;;;;;30.11;42.32;94328.25;5044344;28;7211;-57
2023/06/22 08:17:32;;;;;;;;;;;;;;;30.13;42.54;94319.38;5045962;28;7281;-57
2023/06/22 08:20:22;;;;;;;;;;;;;;;30.16;41.13;94324.63;5021999;28;7489;-57
2023/06/22 08:22:50;;;;;;;;;;;;;;;30.12;41.48;94332.53;5045341;28;7102;-57
2023/06/22 08:25:33;;;;;;;;;;;;;;;30.13;42.05;94314.59;5027115;28;7133;-57
2023/06/22 08:28:04;;;;;;;;;;;;;;;30.13;41.85;94306.28;5025735;28;7052;-57
2023/06/22 08:31:12;;;;;;;;;;;;;;;30.15;41.74;94311.25;5024362;28;9433;-57
2023/06/22 08:34:13;;;;;;;;;;;;;;;30.15;41.16;94314.78;5028601;28;9157;-57
2023/06/22 08:37:12;;;;;;;;;;;;;;;30.17;41.26;94305.91;4969106;28;9640;-56
2023/06/22 08:40:09;;;;;;;;;;;;;;;30.15;42.13;94311.25;4969199;28;7323;-57
2023/06/22 08:46:33;;;;;;;;;;;;;;;30.18;41.70;94299.84;4841568;29;8719;-57
2023/06/22 08:49:28;;;;;;;;;;;;;;;30.20;42.12;94285.41;4842463;29;8043;-57
2023/06/22 08:55:51;;;;;;;;;;;;;;;30.14;41.63;94302.22;4822758;29;7275;-57
2023/06/22 08:58:33;;;;;;;;;;;;;;;30.18;41.00;94288.75;4823935;29;7289;-57
2023/06/22 09:01:18;;;;;;;;;;;;;;;30.16;40.99;94280.22;4821948;29;7060;-57
2023/06/22 09:04:05;;;;;;;;;;;;;;;30.20;41.30;94282.66;4823082;29;9417;-57
2023/06/22 09:07:02;;;;;;;;;;;;;;;30.23;40.70;94287.13;4821516;29;8508;-57
2023/06/22 09:09:40;;;;;;;;;;;;;;;30.21;41.07;94281.38;4788674;29;7526;-57
2023/06/22 09:12:22;;;;;;;;;;;;;;;30.23;41.42;94267.69;4800712;29;8266;-57
2023/06/22 09:14:50;;;;;;;;;;;;;;;30.26;40.75;94272.88;4837460;29;7292;-57
2023/06/22 09:17:32;;;;;;;;;;;;;;;30.26;41.25;94264.56;4822325;29;8379;-57
2023/06/22 09:20:10;;;;;;;;;;;;;;;30.28;41.55;94267.53;4895581;29;7052;-57
2023/06/22 09:22:36;;;;;;;;;;;;;;;30.31;42.77;94263.72;4906704;29;6990;-57
2023/06/22 09:25:03;;;;;;;;;;;;;;;30.32;43.16;94261.69;4906278;29;8682;-57
2023/06/22 09:28:18;;;;;;;;;;;;;;;30.30;43.64;94256.63;4927794;29;9149;-57
2023/06/22 09:30:59;;;;;;;;;;;;;;;30.32;43.20;94245.75;4916414;29;9041;-57
2023/06/22 09:33:37;;;;;;;;;;;;;;;30.36;43.42;94235.03;4928842;29;9115;-57
2023/06/22 09:36:12;;;;;;;;;;;;;;;30.40;43.38;94240.25;4924422;29;9153;-57
2023/06/22 09:38:38;;;;;;;;;;;;;;;30.41;42.25;94227.84;4917568;29;8113;-57
2023/06/22 09:41:05;;;;;;;;;;;;;;;30.42;42.44;94232.13;4928363;28;9047;-56
2023/06/22 09:43:43;;;;;;;;;;;;;;;30.31;43.19;94216.53;4926300;29;7256;-57
2023/06/22 09:46:10;;;;;;;;;;;;;;;30.34;43.09;94218.19;4949996;28;7276;-57
2023/06/22 09:48:38;;;;;;;;;;;;;;;30.40;43.12;94216.03;4982159;28;7270;-57
2023/06/22 09:51:08;;;;;;;;;;;;;;;30.45;42.84;94211.59;4977586;28;7665;-57
2023/06/22 09:53:39;;;;;;;;;;;;;;;30.48;42.75;94213.28;4962956;28;7470;-57
2023/06/22 09:56:06;;;;;;;;;;;;;;;30.50;42.91;94196.81;4986497;28;8687;-57
2023/06/22 09:58:33;;;;;;;;;;;;;;;30.45;43.10;94192.16;4988535;28;7271;-57
2023/06/22 10:01:01;;;;;;;;;;;;;;;30.41;43.06;94186.22;4970428;28;9049;-57
2023/06/22 10:03:29;;;;;;;;;;;;;;;30.38;42.84;94188.06;4963322;28;7236;-57
2023/06/22 10:06:02;;;;;;;;;;;;;;;30.37;42.28;94183.81;4987117;28;7186;-56
2023/06/22 10:08:32;;;;;;;;;;;;;;;30.33;43.45;94186.22;5027443;28;7267;-57
2023/06/22 10:11:00;;;;;;;;;;;;;;;30.33;42.75;94188.97;5042954;28;6995;-57
2023/06/22 10:13:26;;;;;;;;;;;;;;;30.37;42.43;94175.50;5026421;28;7188;-57
2023/06/22 10:15:56;;;;;;;;;;;;;;;30.40;42.39;94173.66;5028125;28;7123;-57
2023/06/22 10:18:21;;;;;;;;;;;;;;;30.44;43.00;94183.13;5040127;28;7054;-57
2023/06/22 10:20:52;;;;;;;;;;;;;;;30.47;42.76;94170.19;5054017;28;6998;-57
2023/06/22 10:23:24;;;;;;;;;;;;;;;30.47;42.07;94170.91;5026887;28;7230;-56
2023/06/22 10:25:50;;;;;;;;;;;;;;;30.49;42.19;94178.69;5023795;28;7262;-57
2023/06/22 10:28:16;;;;;;;;;;;;;;;30.48;42.51;94172.41;5026602;28;7468;-57
2023/06/22 10:30:43;;;;;;;;;;;;;;;30.51;42.10;94173.34;5025663;28;7265;-57
2023/06/22 10:33:12;;;;;;;;;;;;;;;30.50;42.87;94178.13;5053068;28;7098;-57
2023/06/22 10:35:38;;;;;;;;;;;;;;;30.51;42.88;94176.13;5025624;28;9048;-56
2023/06/22 10:38:06;;;;;;;;;;;;;;;30.48;42.14;94177.94;5019738;28;9471;-57
2023/06/22 10:40:50;;;;;;;;;;;;;;;30.52;42.46;94181.09;5025997;28;7309;-56
2023/06/22 10:43:45;;;;;;;;;;;;;;;30.53;41.91;94171.50;5028656;28;7049;-57
2023/06/22 10:46:30;;;;;;;;;;;;;;;30.53;43.04;94173.53;5031153;28;9132;-56
2023/06/22 10:49:05;;;;;;;;;;;;;;;30.53;42.63;94185.38;5029695;28;7048;-57
2023/06/22 10:51:55;;;;;;;;;;;;;;;30.54;43.68;94175.75;5007744;28;7061;-56
2023/06/22 10:54:22;;;;;;;;;;;;;;;30.53;43.93;94179.84;5043892;28;7280;-56
2023/06/22 10:57:00;;;;;;;;;;;;;;;30.56;43.82;94182.78;5047369;28;7208;-56
2023/06/22 10:59:34;;;;;;;;;;;;;;;30.56;43.98;94172.41;5031185;28;7262;-56
2023/06/22 11:01:59;;;;;;;;;;;;;;;30.59;44.57;94181.69;5028117;28;9047;-57
2023/06/22 11:04:35;;;;;;;;;;;;;;;30.59;43.50;94173.34;5042623;28;7272;-57
2023/06/22 11:07:33;;;;;;;;;;;;;;;30.61;43.50;94171.53;5021666;28;9215;-57
2023/06/22 11:10:28;;;;;;;;;;;;;;;30.62;43.79;94181.34;5024999;28;8027;-57
2023/06/22 11:12:57;;;;;;;;;;;;;;;30.61;43.51;94185.41;5025095;28;7244;-57
2023/06/22 11:15:50;;;;;;;;;;;;;;;30.62;44.39;94197.25;5026592;28;8854;-57
2023/06/22 11:18:34;;;;;;;;;;;;;;;30.62;43.60;94200.78;4953137;28;7085;-57
2023/06/22 11:21:11;;;;;;;;;;;;;;;30.64;43.13;94203.00;4967916;28;9030;-57
2023/06/22 11:23:57;;;;;;;;;;;;;;;30.64;42.76;94200.22;4951625;28;7321;-57
2023/06/22 11:26:33;;;;;;;;;;;;;;;30.63;43.17;94195.94;4953889;28;7040;-57
2023/06/22 11:29:05;;;;;;;;;;;;;;;30.61;42.89;94202.06;4969533;28;7235;-57
2023/06/22 11:31:50;;;;;;;;;;;;;;;30.64;42.77;94200.97;4964538;28;7274;-57
2023/06/22 11:34:27;;;;;;;;;;;;;;;30.69;43.73;94202.09;4957710;28;7059;-57
2023/06/22 11:37:01;;;;;;;;;;;;;;;30.69;42.83;94207.66;4946412;28;7368;-57
2023/06/22 11:39:29;;;;;;;;;;;;;;;30.78;42.38;94207.09;4967084;28;7413;-57
2023/06/22 11:42:28;;;;;;;;;;;;;;;30.79;42.29;94214.16;4965161;28;8865;-57
2023/06/22 11:45:05;;;;;;;;;;;;;;;30.78;42.52;94224.53;4953430;28;7267;-57
2023/06/22 11:47:57;;;;;;;;;;;;;;;30.82;42.19;94226.97;4968106;28;7222;-56
2023/06/22 11:50:42;;;;;;;;;;;;;;;30.82;42.05;94227.69;4949111;28;9291;-57
2023/06/22 11:53:27;;;;;;;;;;;;;;;30.84;42.67;94235.47;4952661;28;7038;-57
2023/06/22 11:56:06;;;;;;;;;;;;;;;30.79;41.89;94230.81;5014849;28;7130;-57
2023/06/22 11:58:32;;;;;;;;;;;;;;;30.78;41.49;94237.66;5045201;28;8448;-57
2023/06/22 12:04:38;;;;;;;;;;;;;;;30.70;41.42;94234.13;5028990;28;6819;-57
2023/06/22 12:07:43;;;;;;;;;;;;;;;30.70;42.18;94231.34;5026128;28;7031;-57
2023/06/22 12:11:03;;;;;;;;;;;;;;;30.68;41.85;94231.88;4949220;28;7104;-61
2023/06/22 12:13:55;;;;;;;;;;;;;;;30.71;42.42;94232.84;4933323;29;7048;-62
2023/06/22 12:16:32;;;;;;;;;;;;;;;30.72;41.72;94223.94;4946034;28;9090;-61
2023/06/22 12:19:06;;;;;;;;;;;;;;;30.77;42.41;94225.81;4936951;28;9130;-61
2023/06/22 12:21:45;;;;;;;;;;;;;;;30.81;42.00;94220.66;4945117;28;7202;-62
2023/06/22 12:24:37;;;;;;;;;;;;;;;30.84;42.62;94221.59;4934477;28;9097;-61
2023/06/22 12:27:20;;;;;;;;;;;;;;;30.88;41.09;94222.00;4947202;28;9004;-61
2023/06/22 12:29:47;;;;;;;;;;;;;;;30.89;41.33;94220.69;4949827;28;7049;-61
2023/06/22 12:32:44;;;;;;;;;;;;;;;30.96;41.60;94229.06;4947628;28;8625;-62
2023/06/22 12:35:13;;;;;;;;;;;;;;;31.01;41.19;94241.31;4895802;29;7026;-61
2023/06/22 12:38:11;;;;;;;;;;;;;;;31.05;40.66;94231.31;4879048;29;7215;-61
2023/06/22 12:40:55;;;;;;;;;;;;;;;31.08;39.33;94227.44;4850724;29;7246;-61
2023/06/22 12:43:31;;;;;;;;;;;;;;;31.08;38.96;94210.03;4869426;29;7358;-61
2023/06/22 12:46:07;;;;;;;;;;;;;;;31.13;38.70;94192.44;4886328;29;6978;-61
2023/06/22 12:48:44;;;;;;;;;;;;;;;31.17;37.19;94198.38;4903620;29;7033;-61
2023/06/22 12:51:10;;;;;;;;;;;;;;;31.19;38.19;94199.31;4921021;29;7012;-61
2023/06/22 12:53:55;;;;;;;;;;;;;;;31.28;38.71;94198.00;4904621;29;7988;-61
2023/06/22 12:56:24;;;;;;;;;;;;;;;31.29;37.71;94188.41;4918879;29;7688;-61
2023/06/22 12:59:28;;;;;;;;;;;;;;;31.34;36.45;94187.50;4916055;29;7161;-61
2023/06/22 13:02:28;;;;;;;;;;;;;;;31.32;36.52;94190.06;4901409;29;7286;-62
2023/06/22 13:05:05;;;;;;;;;;;;;;;31.31;36.17;94194.13;4844999;29;8991;-61
2023/06/22 13:07:45;;;;;;;;;;;;;;;31.39;37.33;94208.78;4858741;29;7282;-61
2023/06/22 13:10:56;;;;;;;;;;;;;;;31.48;37.08;94202.72;4863047;29;7061;-61
2023/06/22 13:13:27;;;;;;;;;;;;;;;31.49;36.89;94217.34;4912487;29;8942;-61
2023/06/22 13:16:07;;;;;;;;;;;;;;;31.46;36.76;94226.78;4899928;28;7168;-62
2023/06/22 13:18:35;;;;;;;;;;;;;;;31.44;35.73;94227.34;4952505;28;7180;-62
2023/06/22 13:21:10;;;;;;;;;;;;;;;31.38;36.39;94226.03;4952952;28;7098;-61
2023/06/22 13:23:48;;;;;;;;;;;;;;;31.34;36.95;94243.06;4951665;28;7271;-61
2023/06/22 13:26:15;;;;;;;;;;;;;;;31.30;36.26;94247.50;4951335;28;7361;-61
2023/06/22 13:29:14;;;;;;;;;;;;;;;31.26;36.70;94258.97;4952675;28;8970;-61
2023/06/22 13:31:59;;;;;;;;;;;;;;;31.21;36.26;94265.47;4922292;29;7264;-61
2023/06/22 13:34:27;;;;;;;;;;;;;;;31.12;35.96;94254.88;4938876;28;9153;-61
2023/06/22 13:37:02;;;;;;;;;;;;;;;31.04;34.64;94262.41;4920096;29;7117;-61
2023/06/22 13:39:55;;;;;;;;;;;;;;;30.99;33.72;94255.00;4924105;28;9216;-61
2023/06/22 13:42:33;;;;;;;;;;;;;;;30.93;32.05;94279.44;4974578;28;8739;-61
2023/06/22 13:45:03;;;;;;;;;;;;;;;30.89;31.21;94265.13;4947504;28;9094;-62
2023/06/22 13:47:29;;;;;;;;;;;;;;;30.87;31.81;94278.81;4970849;28;7279;-62
2023/06/22 13:49:57;;;;;;;;;;;;;;;30.84;31.70;94280.63;4971540;28;7303;-62
2023/06/22 13:52:56;;;;;;;;;;;;;;;30.82;32.05;94271.38;4973646;28;7266;-62
2023/06/22 13:55:31;;;;;;;;;;;;;;;30.78;31.93;94265.44;4940032;28;8755;-61
2023/06/22 13:58:06;;;;;;;;;;;;;;;30.80;32.57;94285.81;4935051;28;7229;-62
2023/06/22 14:00:57;;;;;;;;;;;;;;;30.79;32.41;94298.22;4937689;28;9038;-61
2023/06/22 14:03:56;;;;;;;;;;;;;;;30.78;34.01;94282.09;4924898;28;9052;-61
2023/06/22 14:06:38;;;;;;;;;;;;;;;30.80;32.98;94271.19;4895643;29;8985;-61